sensor_id;sensor_type;location;lat;lon;timestamp;P1;durP1;ratioP1;P2;durP2;ratioP2
29876;SDS011;16750;49.002;9.204;2022-09-12T00:01:23;10.25;;;8.57;;
29876;SDS011;16750;49.002;9.204;2022-09-12T00:03:57;9.85;;;8.63;;
29876;SDS011;16750;49.002;9.204;2022-09-12T00:06:29;11.18;;;9.32;;
29876;SDS011;16750;49.002;9.204;2022-09-12T00:08:57;11.60;;;9.32;;
29876;SDS011;16750;49.002;9.204;2022-09-12T00:11:24;11.57;;;9.40;;
29876;SDS011;16750;49.002;9.204;2022-09-12T00:13:51;12.60;;;8.85;;
29876;SDS011;16750;49.002;9.204;2022-09-12T00:16:22;10.75;;;8.98;;
29876;SDS011;16750;49.002;9.204;2022-09-12T00:18:48;13.95;;;8.93;;
29876;SDS011;16750;49.002;9.204;2022-09-12T00:21:15;10.80;;;9.23;;
29876;SDS011;16750;49.002;9.204;2022-09-12T00:23:42;11.35;;;9.65;;
29876;SDS011;16750;49.002;9.204;2022-09-12T00:26:07;12.35;;;10.43;;
29876;SDS011;16750;49.002;9.204;2022-09-12T00:28:34;11.10;;;9.55;;
29876;SDS011;16750;49.002;9.204;2022-09-12T00:31:02;11.38;;;9.18;;
29876;SDS011;16750;49.002;9.204;2022-09-12T00:33:30;11.77;;;9.23;;
29876;SDS011;16750;49.002;9.204;2022-09-12T00:35:55;11.23;;;9.30;;
29876;SDS011;16750;49.002;9.204;2022-09-12T00:38:20;12.88;;;9.73;;
29876;SDS011;16750;49.002;9.204;2022-09-12T00:40:46;12.25;;;9.18;;
29876;SDS011;16750;49.002;9.204;2022-09-12T00:43:13;11.75;;;9.55;;
29876;SDS011;16750;49.002;9.204;2022-09-12T00:45:57;10.70;;;8.82;;
29876;SDS011;16750;49.002;9.204;2022-09-12T00:48:41;10.82;;;8.70;;
29876;SDS011;16750;49.002;9.204;2022-09-12T00:51:10;10.75;;;9.02;;
29876;SDS011;16750;49.002;9.204;2022-09-12T00:53:37;12.27;;;9.15;;
29876;SDS011;16750;49.002;9.204;2022-09-12T00:56:03;10.98;;;8.48;;
29876;SDS011;16750;49.002;9.204;2022-09-12T00:58:37;11.52;;;9.13;;
29876;SDS011;16750;49.002;9.204;2022-09-12T01:01:06;13.52;;;10.10;;
29876;SDS011;16750;49.002;9.204;2022-09-12T01:03:31;11.65;;;9.52;;
29876;SDS011;16750;49.002;9.204;2022-09-12T01:06:06;11.88;;;9.18;;
29876;SDS011;16750;49.002;9.204;2022-09-12T01:08:39;12.40;;;9.45;;
29876;SDS011;16750;49.002;9.204;2022-09-12T01:11:08;12.35;;;9.40;;
29876;SDS011;16750;49.002;9.204;2022-09-12T01:13:35;11.90;;;9.85;;
29876;SDS011;16750;49.002;9.204;2022-09-12T01:16:03;10.50;;;8.27;;
29876;SDS011;16750;49.002;9.204;2022-09-12T01:21:54;9.98;;;8.98;;
29876;SDS011;16750;49.002;9.204;2022-09-12T01:35:43;12.63;;;10.35;;
29876;SDS011;16750;49.002;9.204;2022-09-12T01:38:26;10.50;;;8.88;;
29876;SDS011;16750;49.002;9.204;2022-09-12T01:41:11;12.73;;;9.85;;
29876;SDS011;16750;49.002;9.204;2022-09-12T01:46:47;12.30;;;10.07;;
29876;SDS011;16750;49.002;9.204;2022-09-12T01:49:20;12.15;;;9.85;;
29876;SDS011;16750;49.002;9.204;2022-09-12T01:51:57;12.40;;;9.95;;
29876;SDS011;16750;49.002;9.204;2022-09-12T01:54:30;11.00;;;9.15;;
29876;SDS011;16750;49.002;9.204;2022-09-12T01:57:03;11.70;;;9.30;;
29876;SDS011;16750;49.002;9.204;2022-09-12T01:59:39;15.10;;;10.18;;
29876;SDS011;16750;49.002;9.204;2022-09-12T02:02:13;12.32;;;8.95;;
29876;SDS011;16750;49.002;9.204;2022-09-12T02:04:47;13.80;;;9.90;;
29876;SDS011;16750;49.002;9.204;2022-09-12T02:07:18;11.65;;;9.80;;
29876;SDS011;16750;49.002;9.204;2022-09-12T02:09:49;11.93;;;9.20;;
29876;SDS011;16750;49.002;9.204;2022-09-12T02:12:26;10.73;;;8.75;;
29876;SDS011;16750;49.002;9.204;2022-09-12T02:15:01;13.82;;;9.85;;
29876;SDS011;16750;49.002;9.204;2022-09-12T02:17:31;11.80;;;9.25;;
29876;SDS011;16750;49.002;9.204;2022-09-12T02:20:07;11.07;;;9.40;;
29876;SDS011;16750;49.002;9.204;2022-09-12T02:22:40;11.00;;;8.93;;
29876;SDS011;16750;49.002;9.204;2022-09-12T02:25:08;10.80;;;9.13;;
29876;SDS011;16750;49.002;9.204;2022-09-12T02:27:37;11.68;;;9.73;;
29876;SDS011;16750;49.002;9.204;2022-09-12T02:30:07;13.32;;;10.68;;
29876;SDS011;16750;49.002;9.204;2022-09-12T02:38:15;12.10;;;9.18;;
29876;SDS011;16750;49.002;9.204;2022-09-12T02:40:57;14.10;;;9.30;;
29876;SDS011;16750;49.002;9.204;2022-09-12T02:43:22;10.77;;;9.48;;
29876;SDS011;16750;49.002;9.204;2022-09-12T02:45:48;10.35;;;8.75;;
29876;SDS011;16750;49.002;9.204;2022-09-12T02:48:14;12.25;;;9.93;;
29876;SDS011;16750;49.002;9.204;2022-09-12T02:50:43;11.60;;;9.73;;
29876;SDS011;16750;49.002;9.204;2022-09-12T02:53:09;11.93;;;9.63;;
29876;SDS011;16750;49.002;9.204;2022-09-12T02:55:36;10.57;;;9.23;;
29876;SDS011;16750;49.002;9.204;2022-09-12T02:58:04;11.07;;;9.50;;
29876;SDS011;16750;49.002;9.204;2022-09-12T03:00:37;12.50;;;9.52;;
29876;SDS011;16750;49.002;9.204;2022-09-12T03:06:37;11.07;;;9.73;;
29876;SDS011;16750;49.002;9.204;2022-09-12T03:09:11;11.35;;;9.73;;
29876;SDS011;16750;49.002;9.204;2022-09-12T03:17:17;15.85;;;9.73;;
29876;SDS011;16750;49.002;9.204;2022-09-12T03:20:16;10.93;;;9.40;;
29876;SDS011;16750;49.002;9.204;2022-09-12T03:22:55;11.55;;;9.60;;
29876;SDS011;16750;49.002;9.204;2022-09-12T03:25:35;13.77;;;9.80;;
29876;SDS011;16750;49.002;9.204;2022-09-12T03:28:08;11.02;;;9.27;;
29876;SDS011;16750;49.002;9.204;2022-09-12T03:30:40;11.07;;;9.82;;
29876;SDS011;16750;49.002;9.204;2022-09-12T03:33:17;13.63;;;11.15;;
29876;SDS011;16750;49.002;9.204;2022-09-12T03:35:44;14.05;;;11.13;;
29876;SDS011;16750;49.002;9.204;2022-09-12T03:38:11;12.60;;;10.80;;
29876;SDS011;16750;49.002;9.204;2022-09-12T03:40:37;12.23;;;10.32;;
29876;SDS011;16750;49.002;9.204;2022-09-12T03:43:04;13.18;;;10.85;;
29876;SDS011;16750;49.002;9.204;2022-09-12T03:45:30;13.45;;;11.05;;
29876;SDS011;16750;49.002;9.204;2022-09-12T03:47:56;13.98;;;11.77;;
29876;SDS011;16750;49.002;9.204;2022-09-12T03:50:22;13.82;;;11.55;;
29876;SDS011;16750;49.002;9.204;2022-09-12T03:52:47;12.07;;;10.45;;
29876;SDS011;16750;49.002;9.204;2022-09-12T03:55:13;12.52;;;10.57;;
29876;SDS011;16750;49.002;9.204;2022-09-12T03:57:39;13.73;;;11.00;;
29876;SDS011;16750;49.002;9.204;2022-09-12T04:00:05;12.73;;;10.70;;
29876;SDS011;16750;49.002;9.204;2022-09-12T04:02:37;12.73;;;10.52;;
29876;SDS011;16750;49.002;9.204;2022-09-12T04:05:03;18.77;;;15.20;;
29876;SDS011;16750;49.002;9.204;2022-09-12T04:07:29;13.02;;;10.95;;
29876;SDS011;16750;49.002;9.204;2022-09-12T04:09:54;14.32;;;10.40;;
29876;SDS011;16750;49.002;9.204;2022-09-12T04:12:20;14.32;;;12.05;;
29876;SDS011;16750;49.002;9.204;2022-09-12T04:14:46;15.73;;;11.43;;
29876;SDS011;16750;49.002;9.204;2022-09-12T04:17:12;13.55;;;11.20;;
29876;SDS011;16750;49.002;9.204;2022-09-12T04:19:38;13.65;;;10.65;;
29876;SDS011;16750;49.002;9.204;2022-09-12T04:22:03;12.05;;;10.77;;
29876;SDS011;16750;49.002;9.204;2022-09-12T04:24:29;15.85;;;11.50;;
29876;SDS011;16750;49.002;9.204;2022-09-12T04:26:55;13.15;;;10.95;;
29876;SDS011;16750;49.002;9.204;2022-09-12T04:29:20;12.80;;;10.77;;
29876;SDS011;16750;49.002;9.204;2022-09-12T04:31:46;12.13;;;10.45;;
29876;SDS011;16750;49.002;9.204;2022-09-12T04:34:11;12.77;;;11.43;;
29876;SDS011;16750;49.002;9.204;2022-09-12T04:36:37;13.82;;;11.07;;
29876;SDS011;16750;49.002;9.204;2022-09-12T04:39:04;13.30;;;11.15;;
29876;SDS011;16750;49.002;9.204;2022-09-12T04:41:33;14.07;;;11.10;;
29876;SDS011;16750;49.002;9.204;2022-09-12T04:44:01;12.40;;;10.02;;
29876;SDS011;16750;49.002;9.204;2022-09-12T04:46:30;12.52;;;9.93;;
29876;SDS011;16750;49.002;9.204;2022-09-12T04:48:57;13.15;;;10.05;;
29876;SDS011;16750;49.002;9.204;2022-09-12T04:51:24;14.32;;;10.30;;
29876;SDS011;16750;49.002;9.204;2022-09-12T04:53:53;13.85;;;10.93;;
29876;SDS011;16750;49.002;9.204;2022-09-12T04:56:20;15.60;;;11.48;;
29876;SDS011;16750;49.002;9.204;2022-09-12T04:58:46;16.00;;;11.23;;
29876;SDS011;16750;49.002;9.204;2022-09-12T05:01:13;13.13;;;10.75;;
29876;SDS011;16750;49.002;9.204;2022-09-12T05:03:41;14.40;;;11.00;;
29876;SDS011;16750;49.002;9.204;2022-09-12T05:06:09;12.88;;;10.68;;
29876;SDS011;16750;49.002;9.204;2022-09-12T05:08:36;15.70;;;10.90;;
29876;SDS011;16750;49.002;9.204;2022-09-12T05:11:13;14.13;;;11.57;;
29876;SDS011;16750;49.002;9.204;2022-09-12T05:13:40;13.63;;;10.73;;
29876;SDS011;16750;49.002;9.204;2022-09-12T05:16:07;12.15;;;9.90;;
29876;SDS011;16750;49.002;9.204;2022-09-12T05:18:35;13.27;;;10.55;;
29876;SDS011;16750;49.002;9.204;2022-09-12T05:21:02;12.95;;;10.50;;
29876;SDS011;16750;49.002;9.204;2022-09-12T05:23:32;11.30;;;9.80;;
29876;SDS011;16750;49.002;9.204;2022-09-12T05:25:58;13.95;;;10.25;;
29876;SDS011;16750;49.002;9.204;2022-09-12T05:28:27;10.30;;;9.20;;
29876;SDS011;16750;49.002;9.204;2022-09-12T05:31:14;15.75;;;9.90;;
29876;SDS011;16750;49.002;9.204;2022-09-12T05:36:15;23.17;;;16.83;;
29876;SDS011;16750;49.002;9.204;2022-09-12T05:38:42;16.05;;;12.23;;
29876;SDS011;16750;49.002;9.204;2022-09-12T05:41:09;15.15;;;12.40;;
29876;SDS011;16750;49.002;9.204;2022-09-12T05:43:36;14.52;;;11.30;;
29876;SDS011;16750;49.002;9.204;2022-09-12T05:46:13;13.27;;;10.50;;
29876;SDS011;16750;49.002;9.204;2022-09-12T05:48:41;15.75;;;11.00;;
29876;SDS011;16750;49.002;9.204;2022-09-12T05:51:09;13.25;;;11.23;;
29876;SDS011;16750;49.002;9.204;2022-09-12T05:53:37;11.88;;;10.57;;
29876;SDS011;16750;49.002;9.204;2022-09-12T05:56:07;16.63;;;11.90;;
29876;SDS011;16750;49.002;9.204;2022-09-12T05:58:35;15.35;;;11.70;;
29876;SDS011;16750;49.002;9.204;2022-09-12T06:01:06;12.27;;;10.40;;
29876;SDS011;16750;49.002;9.204;2022-09-12T06:03:45;12.73;;;11.07;;
29876;SDS011;16750;49.002;9.204;2022-09-12T06:06:18;14.18;;;11.27;;
29876;SDS011;16750;49.002;9.204;2022-09-12T06:08:46;15.55;;;12.43;;
29876;SDS011;16750;49.002;9.204;2022-09-12T06:11:14;16.00;;;12.07;;
29876;SDS011;16750;49.002;9.204;2022-09-12T06:13:42;13.95;;;10.95;;
29876;SDS011;16750;49.002;9.204;2022-09-12T06:16:12;13.55;;;12.05;;
29876;SDS011;16750;49.002;9.204;2022-09-12T06:18:39;14.95;;;11.40;;
29876;SDS011;16750;49.002;9.204;2022-09-12T06:21:06;14.55;;;10.63;;
29876;SDS011;16750;49.002;9.204;2022-09-12T06:23:36;19.33;;;12.35;;
29876;SDS011;16750;49.002;9.204;2022-09-12T06:26:03;17.05;;;11.50;;
29876;SDS011;16750;49.002;9.204;2022-09-12T06:28:30;22.45;;;11.20;;
29876;SDS011;16750;49.002;9.204;2022-09-12T06:31:03;15.73;;;11.52;;
29876;SDS011;16750;49.002;9.204;2022-09-12T06:33:32;21.33;;;12.90;;
29876;SDS011;16750;49.002;9.204;2022-09-12T06:36:03;19.13;;;12.02;;
29876;SDS011;16750;49.002;9.204;2022-09-12T06:38:36;27.55;;;12.02;;
29876;SDS011;16750;49.002;9.204;2022-09-12T06:41:03;14.95;;;11.85;;
29876;SDS011;16750;49.002;9.204;2022-09-12T06:43:30;17.27;;;12.02;;
29876;SDS011;16750;49.002;9.204;2022-09-12T06:45:56;18.30;;;11.07;;
29876;SDS011;16750;49.002;9.204;2022-09-12T06:48:21;13.90;;;11.38;;
29876;SDS011;16750;49.002;9.204;2022-09-12T06:51:06;20.27;;;11.43;;
29876;SDS011;16750;49.002;9.204;2022-09-12T06:53:35;19.25;;;11.57;;
29876;SDS011;16750;49.002;9.204;2022-09-12T06:56:04;18.08;;;12.20;;
29876;SDS011;16750;49.002;9.204;2022-09-12T06:58:32;16.85;;;11.73;;
29876;SDS011;16750;49.002;9.204;2022-09-12T07:03:30;15.10;;;11.05;;
29876;SDS011;16750;49.002;9.204;2022-09-12T07:05:56;13.95;;;10.23;;
29876;SDS011;16750;49.002;9.204;2022-09-12T07:08:25;15.32;;;11.32;;
29876;SDS011;16750;49.002;9.204;2022-09-12T07:10:55;14.32;;;10.43;;
29876;SDS011;16750;49.002;9.204;2022-09-12T07:13:23;13.80;;;10.20;;
29876;SDS011;16750;49.002;9.204;2022-09-12T07:15:48;15.35;;;10.15;;
29876;SDS011;16750;49.002;9.204;2022-09-12T07:18:15;13.57;;;9.75;;
29876;SDS011;16750;49.002;9.204;2022-09-12T07:20:41;14.30;;;10.20;;
29876;SDS011;16750;49.002;9.204;2022-09-12T07:23:07;14.23;;;9.88;;
29876;SDS011;16750;49.002;9.204;2022-09-12T07:25:33;19.77;;;11.05;;
29876;SDS011;16750;49.002;9.204;2022-09-12T07:27:58;17.10;;;9.82;;
29876;SDS011;16750;49.002;9.204;2022-09-12T07:30:24;17.13;;;9.50;;
29876;SDS011;16750;49.002;9.204;2022-09-12T07:32:52;16.60;;;9.68;;
29876;SDS011;16750;49.002;9.204;2022-09-12T07:35:19;14.70;;;10.38;;
29876;SDS011;16750;49.002;9.204;2022-09-12T07:37:45;16.08;;;9.50;;
29876;SDS011;16750;49.002;9.204;2022-09-12T07:40:11;15.98;;;9.80;;
29876;SDS011;16750;49.002;9.204;2022-09-12T07:42:36;19.25;;;9.80;;
29876;SDS011;16750;49.002;9.204;2022-09-12T07:45:02;14.50;;;9.85;;
29876;SDS011;16750;49.002;9.204;2022-09-12T07:47:27;15.80;;;10.35;;
29876;SDS011;16750;49.002;9.204;2022-09-12T07:49:53;13.50;;;9.90;;
29876;SDS011;16750;49.002;9.204;2022-09-12T07:52:19;12.95;;;9.00;;
29876;SDS011;16750;49.002;9.204;2022-09-12T07:54:44;11.45;;;8.65;;
29876;SDS011;16750;49.002;9.204;2022-09-12T07:57:10;10.85;;;8.00;;
29876;SDS011;16750;49.002;9.204;2022-09-12T07:59:35;14.05;;;8.07;;
29876;SDS011;16750;49.002;9.204;2022-09-12T08:02:09;11.10;;;8.30;;
29876;SDS011;16750;49.002;9.204;2022-09-12T08:04:37;14.38;;;8.60;;
29876;SDS011;16750;49.002;9.204;2022-09-12T08:07:02;13.23;;;8.40;;
29876;SDS011;16750;49.002;9.204;2022-09-12T08:09:28;14.70;;;8.40;;
29876;SDS011;16750;49.002;9.204;2022-09-12T08:11:53;16.17;;;8.73;;
29876;SDS011;16750;49.002;9.204;2022-09-12T08:14:18;11.57;;;8.48;;
29876;SDS011;16750;49.002;9.204;2022-09-12T08:16:45;12.32;;;7.75;;
29876;SDS011;16750;49.002;9.204;2022-09-12T08:19:10;14.73;;;8.55;;
29876;SDS011;16750;49.002;9.204;2022-09-12T08:21:36;9.45;;;7.90;;
29876;SDS011;16750;49.002;9.204;2022-09-12T08:24:02;13.70;;;8.70;;
29876;SDS011;16750;49.002;9.204;2022-09-12T08:26:30;12.55;;;8.05;;
29876;SDS011;16750;49.002;9.204;2022-09-12T08:28:56;12.27;;;8.13;;
29876;SDS011;16750;49.002;9.204;2022-09-12T08:31:23;10.45;;;7.13;;
29876;SDS011;16750;49.002;9.204;2022-09-12T08:33:50;10.52;;;7.00;;
29876;SDS011;16750;49.002;9.204;2022-09-12T08:36:16;10.45;;;7.47;;
29876;SDS011;16750;49.002;9.204;2022-09-12T08:38:47;9.23;;;7.15;;
29876;SDS011;16750;49.002;9.204;2022-09-12T08:46:26;10.68;;;6.65;;
29876;SDS011;16750;49.002;9.204;2022-09-12T08:48:58;7.70;;;6.65;;
29876;SDS011;16750;49.002;9.204;2022-09-12T08:51:25;11.30;;;6.97;;
29876;SDS011;16750;49.002;9.204;2022-09-12T08:53:52;10.15;;;6.65;;
29876;SDS011;16750;49.002;9.204;2022-09-12T08:56:21;9.18;;;6.85;;
29876;SDS011;16750;49.002;9.204;2022-09-12T08:58:47;9.48;;;5.35;;
29876;SDS011;16750;49.002;9.204;2022-09-12T09:09:01;10.52;;;5.10;;
29876;SDS011;16750;49.002;9.204;2022-09-12T09:11:39;6.53;;;5.40;;
29876;SDS011;16750;49.002;9.204;2022-09-12T09:17:02;6.25;;;4.63;;
29876;SDS011;16750;49.002;9.204;2022-09-12T09:19:30;7.47;;;4.47;;
29876;SDS011;16750;49.002;9.204;2022-09-12T09:22:02;7.13;;;4.32;;
29876;SDS011;16750;49.002;9.204;2022-09-12T09:24:42;5.38;;;4.10;;
29876;SDS011;16750;49.002;9.204;2022-09-12T09:29:46;6.15;;;4.18;;
29876;SDS011;16750;49.002;9.204;2022-09-12T09:37:42;5.85;;;3.60;;
29876;SDS011;16750;49.002;9.204;2022-09-12T09:40:21;5.38;;;4.22;;
29876;SDS011;16750;49.002;9.204;2022-09-12T09:45:47;4.78;;;2.90;;
29876;SDS011;16750;49.002;9.204;2022-09-12T09:48:21;6.20;;;3.42;;
29876;SDS011;16750;49.002;9.204;2022-09-12T09:50:51;5.50;;;3.30;;
29876;SDS011;16750;49.002;9.204;2022-09-12T09:56:25;3.28;;;2.88;;
29876;SDS011;16750;49.002;9.204;2022-09-12T10:01:42;4.68;;;3.20;;
29876;SDS011;16750;49.002;9.204;2022-09-12T10:04:17;6.10;;;2.70;;
29876;SDS011;16750;49.002;9.204;2022-09-12T10:06:44;4.88;;;3.38;;
29876;SDS011;16750;49.002;9.204;2022-09-12T10:11:38;6.00;;;3.13;;
29876;SDS011;16750;49.002;9.204;2022-09-12T10:14:04;4.30;;;2.65;;
29876;SDS011;16750;49.002;9.204;2022-09-12T10:16:59;4.88;;;2.80;;
29876;SDS011;16750;49.002;9.204;2022-09-12T10:19:33;4.63;;;2.97;;
29876;SDS011;16750;49.002;9.204;2022-09-12T10:22:00;4.28;;;2.70;;
29876;SDS011;16750;49.002;9.204;2022-09-12T10:24:35;4.43;;;2.53;;
29876;SDS011;16750;49.002;9.204;2022-09-12T10:27:06;3.17;;;2.03;;
29876;SDS011;16750;49.002;9.204;2022-09-12T10:29:45;5.05;;;2.50;;
29876;SDS011;16750;49.002;9.204;2022-09-12T10:32:48;3.53;;;2.40;;
29876;SDS011;16750;49.002;9.204;2022-09-12T10:35:22;3.17;;;2.30;;
29876;SDS011;16750;49.002;9.204;2022-09-12T10:40:42;4.95;;;2.65;;
29876;SDS011;16750;49.002;9.204;2022-09-12T10:43:17;5.68;;;2.30;;
29876;SDS011;16750;49.002;9.204;2022-09-12T10:50:59;3.78;;;2.25;;
29876;SDS011;16750;49.002;9.204;2022-09-12T10:53:26;3.05;;;2.03;;
29876;SDS011;16750;49.002;9.204;2022-09-12T10:56:19;7.40;;;2.13;;
29876;SDS011;16750;49.002;9.204;2022-09-12T11:01:37;3.47;;;1.60;;
29876;SDS011;16750;49.002;9.204;2022-09-12T11:09:33;4.75;;;1.80;;
29876;SDS011;16750;49.002;9.204;2022-09-12T11:12:28;3.78;;;1.63;;
29876;SDS011;16750;49.002;9.204;2022-09-12T11:18:00;2.97;;;1.80;;
29876;SDS011;16750;49.002;9.204;2022-09-12T11:21:02;2.90;;;1.70;;
29876;SDS011;16750;49.002;9.204;2022-09-12T11:23:35;2.72;;;1.65;;
29876;SDS011;16750;49.002;9.204;2022-09-12T11:29:20;2.10;;;1.20;;
29876;SDS011;16750;49.002;9.204;2022-09-12T11:39:43;3.42;;;1.50;;
29876;SDS011;16750;49.002;9.204;2022-09-12T11:42:15;2.65;;;1.23;;
29876;SDS011;16750;49.002;9.204;2022-09-12T11:44:48;1.23;;;0.88;;
29876;SDS011;16750;49.002;9.204;2022-09-12T11:47:22;1.27;;;1.00;;
29876;SDS011;16750;49.002;9.204;2022-09-12T11:49:50;1.77;;;1.10;;
29876;SDS011;16750;49.002;9.204;2022-09-12T11:55:00;2.35;;;1.20;;
29876;SDS011;16750;49.002;9.204;2022-09-12T11:57:32;2.95;;;1.02;;
29876;SDS011;16750;49.002;9.204;2022-09-12T12:00:05;1.50;;;0.88;;
29876;SDS011;16750;49.002;9.204;2022-09-12T12:02:42;2.03;;;1.13;;
29876;SDS011;16750;49.002;9.204;2022-09-12T12:08:01;1.77;;;1.17;;
29876;SDS011;16750;49.002;9.204;2022-09-12T12:13:07;2.22;;;1.30;;
29876;SDS011;16750;49.002;9.204;2022-09-12T12:15:34;1.73;;;1.08;;
29876;SDS011;16750;49.002;9.204;2022-09-12T12:18:15;1.98;;;0.70;;
29876;SDS011;16750;49.002;9.204;2022-09-12T12:20:42;1.88;;;0.75;;
29876;SDS011;16750;49.002;9.204;2022-09-12T12:23:25;2.13;;;0.80;;
29876;SDS011;16750;49.002;9.204;2022-09-12T12:25:59;1.73;;;0.90;;
29876;SDS011;16750;49.002;9.204;2022-09-12T12:31:09;1.30;;;0.70;;
29876;SDS011;16750;49.002;9.204;2022-09-12T12:36:03;1.70;;;0.95;;
29876;SDS011;16750;49.002;9.204;2022-09-12T12:38:32;2.17;;;0.88;;
29876;SDS011;16750;49.002;9.204;2022-09-12T12:43:44;2.15;;;0.85;;
29876;SDS011;16750;49.002;9.204;2022-09-12T12:46:14;1.58;;;0.70;;
29876;SDS011;16750;49.002;9.204;2022-09-12T12:51:26;3.45;;;0.73;;
29876;SDS011;16750;49.002;9.204;2022-09-12T12:53:56;1.48;;;0.90;;
29876;SDS011;16750;49.002;9.204;2022-09-12T12:59:00;2.15;;;0.80;;
29876;SDS011;16750;49.002;9.204;2022-09-12T13:01:28;1.25;;;0.80;;
29876;SDS011;16750;49.002;9.204;2022-09-12T13:03:55;1.48;;;0.75;;
29876;SDS011;16750;49.002;9.204;2022-09-12T13:06:33;0.80;;;0.70;;
29876;SDS011;16750;49.002;9.204;2022-09-12T13:09:03;1.70;;;0.80;;
29876;SDS011;16750;49.002;9.204;2022-09-12T13:11:34;1.77;;;0.80;;
29876;SDS011;16750;49.002;9.204;2022-09-12T13:14:06;1.00;;;0.57;;
29876;SDS011;16750;49.002;9.204;2022-09-12T13:16:52;1.35;;;0.52;;
29876;SDS011;16750;49.002;9.204;2022-09-12T13:19:30;2.75;;;0.52;;
29876;SDS011;16750;49.002;9.204;2022-09-12T13:22:01;1.63;;;0.52;;
29876;SDS011;16750;49.002;9.204;2022-09-12T13:24:28;1.50;;;0.73;;
29876;SDS011;16750;49.002;9.204;2022-09-12T13:26:54;3.20;;;0.63;;
29876;SDS011;16750;49.002;9.204;2022-09-12T13:29:22;1.30;;;0.70;;
29876;SDS011;16750;49.002;9.204;2022-09-12T13:39:46;1.58;;;0.80;;
29876;SDS011;16750;49.002;9.204;2022-09-12T13:44:51;1.35;;;0.60;;
29876;SDS011;16750;49.002;9.204;2022-09-12T13:47:26;1.67;;;0.68;;
29876;SDS011;16750;49.002;9.204;2022-09-12T13:50:00;1.25;;;0.65;;
29876;SDS011;16750;49.002;9.204;2022-09-12T13:52:28;1.67;;;0.60;;
29876;SDS011;16750;49.002;9.204;2022-09-12T13:54:59;0.75;;;0.60;;
29876;SDS011;16750;49.002;9.204;2022-09-12T13:57:33;1.95;;;0.70;;
29876;SDS011;16750;49.002;9.204;2022-09-12T14:02:43;1.58;;;0.75;;
29876;SDS011;16750;49.002;9.204;2022-09-12T14:05:11;0.70;;;0.52;;
29876;SDS011;16750;49.002;9.204;2022-09-12T14:10:28;4.00;;;0.90;;
29876;SDS011;16750;49.002;9.204;2022-09-12T14:12:55;2.55;;;1.02;;
29876;SDS011;16750;49.002;9.204;2022-09-12T14:15:22;1.33;;;0.60;;
29876;SDS011;16750;49.002;9.204;2022-09-12T14:17:52;0.60;;;0.50;;
29876;SDS011;16750;49.002;9.204;2022-09-12T14:20:20;1.30;;;0.70;;
29876;SDS011;16750;49.002;9.204;2022-09-12T14:22:48;0.88;;;0.70;;
29876;SDS011;16750;49.002;9.204;2022-09-12T14:25:16;1.50;;;0.80;;
29876;SDS011;16750;49.002;9.204;2022-09-12T14:27:49;0.90;;;0.65;;
29876;SDS011;16750;49.002;9.204;2022-09-12T14:30:19;0.80;;;0.50;;
29876;SDS011;16750;49.002;9.204;2022-09-12T14:36:17;0.90;;;0.70;;
29876;SDS011;16750;49.002;9.204;2022-09-12T14:38:35;2.70;;;0.70;;
29876;SDS011;16750;49.002;9.204;2022-09-12T14:41:05;1.95;;;0.60;;
29876;SDS011;16750;49.002;9.204;2022-09-12T14:43:33;1.98;;;0.70;;
29876;SDS011;16750;49.002;9.204;2022-09-12T14:46:04;2.75;;;0.80;;
29876;SDS011;16750;49.002;9.204;2022-09-12T14:48:33;0.80;;;0.63;;
29876;SDS011;16750;49.002;9.204;2022-09-12T14:51:02;1.50;;;0.60;;
29876;SDS011;16750;49.002;9.204;2022-09-12T14:53:30;1.30;;;0.63;;
29876;SDS011;16750;49.002;9.204;2022-09-12T14:56:04;1.40;;;0.60;;
29876;SDS011;16750;49.002;9.204;2022-09-12T14:58:33;0.85;;;0.60;;
29876;SDS011;16750;49.002;9.204;2022-09-12T15:01:00;1.20;;;0.73;;
29876;SDS011;16750;49.002;9.204;2022-09-12T15:09:00;3.65;;;0.85;;
29876;SDS011;16750;49.002;9.204;2022-09-12T15:11:29;2.10;;;0.65;;
29876;SDS011;16750;49.002;9.204;2022-09-12T15:13:57;1.42;;;0.70;;
29876;SDS011;16750;49.002;9.204;2022-09-12T15:16:22;1.60;;;0.80;;
29876;SDS011;16750;49.002;9.204;2022-09-12T15:18:47;1.85;;;0.75;;
29876;SDS011;16750;49.002;9.204;2022-09-12T15:21:15;1.00;;;0.60;;
29876;SDS011;16750;49.002;9.204;2022-09-12T15:26:09;2.60;;;0.63;;
29876;SDS011;16750;49.002;9.204;2022-09-12T15:28:37;1.63;;;0.70;;
29876;SDS011;16750;49.002;9.204;2022-09-12T15:31:06;1.17;;;0.70;;
29876;SDS011;16750;49.002;9.204;2022-09-12T15:33:37;1.52;;;0.80;;
29876;SDS011;16750;49.002;9.204;2022-09-12T15:36:02;2.15;;;0.60;;
29876;SDS011;16750;49.002;9.204;2022-09-12T15:38:35;1.63;;;0.80;;
29876;SDS011;16750;49.002;9.204;2022-09-12T15:41:01;2.63;;;0.70;;
29876;SDS011;16750;49.002;9.204;2022-09-12T15:43:26;1.95;;;0.70;;
29876;SDS011;16750;49.002;9.204;2022-09-12T15:45:52;2.20;;;0.88;;
29876;SDS011;16750;49.002;9.204;2022-09-12T15:48:17;1.63;;;0.80;;
29876;SDS011;16750;49.002;9.204;2022-09-12T15:50:43;1.45;;;0.80;;
29876;SDS011;16750;49.002;9.204;2022-09-12T15:53:12;0.73;;;0.70;;
29876;SDS011;16750;49.002;9.204;2022-09-12T15:55:39;2.15;;;0.70;;
29876;SDS011;16750;49.002;9.204;2022-09-12T15:58:05;1.23;;;0.80;;
29876;SDS011;16750;49.002;9.204;2022-09-12T16:00:31;1.15;;;0.70;;
29876;SDS011;16750;49.002;9.204;2022-09-12T16:02:57;0.98;;;0.73;;
29876;SDS011;16750;49.002;9.204;2022-09-12T16:05:23;1.05;;;0.70;;
29876;SDS011;16750;49.002;9.204;2022-09-12T16:07:51;2.00;;;0.70;;
29876;SDS011;16750;49.002;9.204;2022-09-12T16:10:22;2.00;;;0.50;;
29876;SDS011;16750;49.002;9.204;2022-09-12T16:12:49;5.10;;;0.80;;
29876;SDS011;16750;49.002;9.204;2022-09-12T16:15:19;3.88;;;0.70;;
29876;SDS011;16750;49.002;9.204;2022-09-12T16:17:46;0.70;;;0.50;;
29876;SDS011;16750;49.002;9.204;2022-09-12T16:20:12;1.13;;;0.70;;
29876;SDS011;16750;49.002;9.204;2022-09-12T16:22:38;0.82;;;0.63;;
29876;SDS011;16750;49.002;9.204;2022-09-12T16:25:04;3.08;;;1.88;;
29876;SDS011;16750;49.002;9.204;2022-09-12T16:27:30;3.72;;;0.90;;
29876;SDS011;16750;49.002;9.204;2022-09-12T16:29:56;0.90;;;0.70;;
29876;SDS011;16750;49.002;9.204;2022-09-12T16:32:21;1.73;;;0.85;;
29876;SDS011;16750;49.002;9.204;2022-09-12T16:34:47;1.38;;;0.90;;
29876;SDS011;16750;49.002;9.204;2022-09-12T16:37:12;2.35;;;0.80;;
29876;SDS011;16750;49.002;9.204;2022-09-12T16:39:38;0.82;;;0.57;;
29876;SDS011;16750;49.002;9.204;2022-09-12T16:42:03;0.93;;;0.60;;
29876;SDS011;16750;49.002;9.204;2022-09-12T16:44:28;2.10;;;0.80;;
29876;SDS011;16750;49.002;9.204;2022-09-12T16:46:54;2.00;;;0.77;;
29876;SDS011;16750;49.002;9.204;2022-09-12T16:49:19;1.67;;;0.73;;
29876;SDS011;16750;49.002;9.204;2022-09-12T16:51:45;1.13;;;0.70;;
29876;SDS011;16750;49.002;9.204;2022-09-12T16:54:12;1.23;;;0.80;;
29876;SDS011;16750;49.002;9.204;2022-09-12T16:56:39;1.55;;;0.80;;
29876;SDS011;16750;49.002;9.204;2022-09-12T16:59:05;1.77;;;0.80;;
29876;SDS011;16750;49.002;9.204;2022-09-12T17:01:30;1.77;;;0.80;;
29876;SDS011;16750;49.002;9.204;2022-09-12T17:03:57;2.03;;;0.70;;
29876;SDS011;16750;49.002;9.204;2022-09-12T17:06:23;1.42;;;0.80;;
29876;SDS011;16750;49.002;9.204;2022-09-12T17:08:50;3.70;;;0.80;;
29876;SDS011;16750;49.002;9.204;2022-09-12T17:11:18;2.03;;;0.82;;
29876;SDS011;16750;49.002;9.204;2022-09-12T17:13:52;1.95;;;0.90;;
29876;SDS011;16750;49.002;9.204;2022-09-12T17:16:19;3.60;;;0.70;;
29876;SDS011;16750;49.002;9.204;2022-09-12T17:18:46;1.42;;;0.80;;
29876;SDS011;16750;49.002;9.204;2022-09-12T17:21:12;3.40;;;0.90;;
29876;SDS011;16750;49.002;9.204;2022-09-12T17:23:38;1.38;;;0.80;;